sensor_id;sensor_type;location;lat;lon;timestamp;P1;durP1;ratioP1;P2;durP2;ratioP2
59052;SDS011;44843;44.728;10.396;2023-03-13T00:01:30;14.18;;;7.40;;
59052;SDS011;44843;44.728;10.396;2023-03-13T00:04:00;16.85;;;8.18;;
59052;SDS011;44843;44.728;10.396;2023-03-13T00:06:26;10.98;;;7.03;;
59052;SDS011;44843;44.728;10.396;2023-03-13T00:08:57;17.42;;;8.15;;
59052;SDS011;44843;44.728;10.396;2023-03-13T00:11:24;11.90;;;6.40;;
59052;SDS011;44843;44.728;10.396;2023-03-13T00:13:57;14.55;;;6.88;;
59052;SDS011;44843;44.728;10.396;2023-03-13T00:16:24;16.55;;;7.53;;
59052;SDS011;44843;44.728;10.396;2023-03-13T00:18:50;12.63;;;7.55;;
59052;SDS011;44843;44.728;10.396;2023-03-13T00:21:18;16.35;;;8.43;;
59052;SDS011;44843;44.728;10.396;2023-03-13T00:23:45;14.65;;;7.95;;
59052;SDS011;44843;44.728;10.396;2023-03-13T00:26:12;15.40;;;7.97;;
59052;SDS011;44843;44.728;10.396;2023-03-13T00:28:39;18.23;;;8.88;;
59052;SDS011;44843;44.728;10.396;2023-03-13T00:31:06;12.00;;;8.32;;
59052;SDS011;44843;44.728;10.396;2023-03-13T00:33:34;15.48;;;7.93;;
59052;SDS011;44843;44.728;10.396;2023-03-13T00:36:02;17.83;;;8.00;;
59052;SDS011;44843;44.728;10.396;2023-03-13T00:38:32;16.35;;;7.90;;
59052;SDS011;44843;44.728;10.396;2023-03-13T00:41:02;15.55;;;8.00;;
59052;SDS011;44843;44.728;10.396;2023-03-13T00:43:37;14.45;;;8.38;;
59052;SDS011;44843;44.728;10.396;2023-03-13T00:46:04;13.98;;;8.45;;
59052;SDS011;44843;44.728;10.396;2023-03-13T00:48:29;13.68;;;8.52;;
59052;SDS011;44843;44.728;10.396;2023-03-13T00:50:55;14.68;;;8.50;;
59052;SDS011;44843;44.728;10.396;2023-03-13T00:53:20;17.23;;;9.95;;
59052;SDS011;44843;44.728;10.396;2023-03-13T00:55:56;18.88;;;8.32;;
59052;SDS011;44843;44.728;10.396;2023-03-13T00:58:23;14.57;;;8.20;;
59052;SDS011;44843;44.728;10.396;2023-03-13T01:00:50;14.68;;;7.80;;
59052;SDS011;44843;44.728;10.396;2023-03-13T01:03:16;12.95;;;8.68;;
59052;SDS011;44843;44.728;10.396;2023-03-13T01:05:41;14.00;;;8.88;;
59052;SDS011;44843;44.728;10.396;2023-03-13T01:08:07;13.43;;;8.43;;
59052;SDS011;44843;44.728;10.396;2023-03-13T01:10:33;18.10;;;8.70;;
59052;SDS011;44843;44.728;10.396;2023-03-13T01:12:59;18.08;;;9.30;;
59052;SDS011;44843;44.728;10.396;2023-03-13T01:15:24;12.88;;;7.70;;
59052;SDS011;44843;44.728;10.396;2023-03-13T01:17:49;19.05;;;8.73;;
59052;SDS011;44843;44.728;10.396;2023-03-13T01:20:15;12.88;;;7.50;;
59052;SDS011;44843;44.728;10.396;2023-03-13T01:22:40;15.85;;;8.45;;
59052;SDS011;44843;44.728;10.396;2023-03-13T01:25:06;16.80;;;8.15;;
59052;SDS011;44843;44.728;10.396;2023-03-13T01:27:32;16.10;;;8.20;;
59052;SDS011;44843;44.728;10.396;2023-03-13T01:29:57;11.80;;;7.95;;
59052;SDS011;44843;44.728;10.396;2023-03-13T01:32:22;19.52;;;8.00;;
59052;SDS011;44843;44.728;10.396;2023-03-13T01:34:48;18.55;;;8.95;;
59052;SDS011;44843;44.728;10.396;2023-03-13T01:37:13;15.73;;;7.68;;
59052;SDS011;44843;44.728;10.396;2023-03-13T01:39:39;15.13;;;8.75;;
59052;SDS011;44843;44.728;10.396;2023-03-13T01:42:04;14.15;;;7.68;;
59052;SDS011;44843;44.728;10.396;2023-03-13T01:44:47;15.48;;;8.63;;
59052;SDS011;44843;44.728;10.396;2023-03-13T01:47:14;17.50;;;7.95;;
59052;SDS011;44843;44.728;10.396;2023-03-13T01:49:39;14.88;;;8.48;;
59052;SDS011;44843;44.728;10.396;2023-03-13T01:54:44;13.55;;;7.97;;
59052;SDS011;44843;44.728;10.396;2023-03-13T01:57:26;14.30;;;8.40;;
59052;SDS011;44843;44.728;10.396;2023-03-13T01:59:58;13.45;;;8.13;;
59052;SDS011;44843;44.728;10.396;2023-03-13T02:02:28;19.90;;;8.82;;
59052;SDS011;44843;44.728;10.396;2023-03-13T02:04:55;15.55;;;8.52;;
59052;SDS011;44843;44.728;10.396;2023-03-13T02:07:25;17.10;;;8.98;;
59052;SDS011;44843;44.728;10.396;2023-03-13T02:09:55;18.52;;;9.10;;
59052;SDS011;44843;44.728;10.396;2023-03-13T02:12:23;14.32;;;8.43;;
59052;SDS011;44843;44.728;10.396;2023-03-13T02:14:56;14.80;;;8.02;;
59052;SDS011;44843;44.728;10.396;2023-03-13T02:17:23;17.27;;;8.60;;
59052;SDS011;44843;44.728;10.396;2023-03-13T02:19:50;18.27;;;8.68;;
59052;SDS011;44843;44.728;10.396;2023-03-13T02:27:27;14.93;;;7.55;;
59052;SDS011;44843;44.728;10.396;2023-03-13T02:29:52;15.32;;;9.07;;
59052;SDS011;44843;44.728;10.396;2023-03-13T02:32:18;13.45;;;8.27;;
59052;SDS011;44843;44.728;10.396;2023-03-13T02:34:43;15.70;;;8.60;;
59052;SDS011;44843;44.728;10.396;2023-03-13T02:37:14;16.48;;;7.93;;
59052;SDS011;44843;44.728;10.396;2023-03-13T02:39:43;13.70;;;8.00;;
59052;SDS011;44843;44.728;10.396;2023-03-13T02:42:12;14.70;;;7.80;;
59052;SDS011;44843;44.728;10.396;2023-03-13T02:44:40;16.83;;;7.93;;
59052;SDS011;44843;44.728;10.396;2023-03-13T02:47:06;17.50;;;8.52;;
59052;SDS011;44843;44.728;10.396;2023-03-13T02:49:33;15.60;;;8.73;;
59052;SDS011;44843;44.728;10.396;2023-03-13T02:52:02;17.40;;;9.38;;
59052;SDS011;44843;44.728;10.396;2023-03-13T02:54:36;15.10;;;8.77;;
59052;SDS011;44843;44.728;10.396;2023-03-13T02:57:04;16.30;;;8.38;;
59052;SDS011;44843;44.728;10.396;2023-03-13T02:59:30;15.10;;;8.57;;
59052;SDS011;44843;44.728;10.396;2023-03-13T03:01:56;14.68;;;8.57;;
59052;SDS011;44843;44.728;10.396;2023-03-13T03:04:22;18.52;;;8.73;;
59052;SDS011;44843;44.728;10.396;2023-03-13T03:06:49;17.15;;;8.68;;
59052;SDS011;44843;44.728;10.396;2023-03-13T03:09:16;17.05;;;8.77;;
59052;SDS011;44843;44.728;10.396;2023-03-13T03:11:42;19.50;;;9.90;;
59052;SDS011;44843;44.728;10.396;2023-03-13T03:14:08;22.33;;;9.88;;
59052;SDS011;44843;44.728;10.396;2023-03-13T03:16:34;16.90;;;9.00;;
59052;SDS011;44843;44.728;10.396;2023-03-13T03:19:00;19.23;;;8.98;;
59052;SDS011;44843;44.728;10.396;2023-03-13T03:21:26;19.27;;;9.48;;
59052;SDS011;44843;44.728;10.396;2023-03-13T03:23:51;16.85;;;9.57;;
59052;SDS011;44843;44.728;10.396;2023-03-13T03:26:17;17.63;;;9.65;;
59052;SDS011;44843;44.728;10.396;2023-03-13T03:28:42;15.50;;;8.48;;
59052;SDS011;44843;44.728;10.396;2023-03-13T03:31:09;17.92;;;9.05;;
59052;SDS011;44843;44.728;10.396;2023-03-13T03:33:36;17.10;;;8.75;;
59052;SDS011;44843;44.728;10.396;2023-03-13T03:36:04;19.13;;;9.20;;
59052;SDS011;44843;44.728;10.396;2023-03-13T03:38:34;14.48;;;8.63;;
59052;SDS011;44843;44.728;10.396;2023-03-13T03:40:59;17.65;;;8.35;;
59052;SDS011;44843;44.728;10.396;2023-03-13T03:43:25;18.00;;;9.50;;
59052;SDS011;44843;44.728;10.396;2023-03-13T03:45:51;14.65;;;8.23;;
59052;SDS011;44843;44.728;10.396;2023-03-13T03:48:16;18.80;;;9.45;;
59052;SDS011;44843;44.728;10.396;2023-03-13T03:50:42;16.52;;;9.23;;
59052;SDS011;44843;44.728;10.396;2023-03-13T03:53:07;20.25;;;9.43;;
59052;SDS011;44843;44.728;10.396;2023-03-13T03:55:33;13.63;;;8.68;;
59052;SDS011;44843;44.728;10.396;2023-03-13T03:57:59;15.32;;;9.27;;
59052;SDS011;44843;44.728;10.396;2023-03-13T04:00:24;18.42;;;9.25;;
59052;SDS011;44843;44.728;10.396;2023-03-13T04:02:50;17.40;;;8.95;;
59052;SDS011;44843;44.728;10.396;2023-03-13T04:05:16;14.35;;;8.05;;
59052;SDS011;44843;44.728;10.396;2023-03-13T04:07:41;15.90;;;8.98;;
59052;SDS011;44843;44.728;10.396;2023-03-13T04:10:07;12.95;;;8.65;;
59052;SDS011;44843;44.728;10.396;2023-03-13T04:12:33;14.10;;;8.27;;
59052;SDS011;44843;44.728;10.396;2023-03-13T04:14:58;16.23;;;7.88;;
59052;SDS011;44843;44.728;10.396;2023-03-13T04:17:24;14.77;;;7.60;;
59052;SDS011;44843;44.728;10.396;2023-03-13T04:19:50;16.73;;;8.65;;
59052;SDS011;44843;44.728;10.396;2023-03-13T04:22:15;13.45;;;8.18;;
59052;SDS011;44843;44.728;10.396;2023-03-13T04:24:40;12.60;;;8.00;;
59052;SDS011;44843;44.728;10.396;2023-03-13T04:27:06;14.35;;;8.10;;
59052;SDS011;44843;44.728;10.396;2023-03-13T04:29:31;14.75;;;8.23;;
59052;SDS011;44843;44.728;10.396;2023-03-13T04:31:57;12.55;;;7.20;;
59052;SDS011;44843;44.728;10.396;2023-03-13T04:34:23;15.32;;;7.97;;
59052;SDS011;44843;44.728;10.396;2023-03-13T04:36:48;21.27;;;8.27;;
59052;SDS011;44843;44.728;10.396;2023-03-13T04:39:14;12.63;;;7.70;;
59052;SDS011;44843;44.728;10.396;2023-03-13T04:41:39;14.80;;;8.38;;
59052;SDS011;44843;44.728;10.396;2023-03-13T04:44:04;16.48;;;7.88;;
59052;SDS011;44843;44.728;10.396;2023-03-13T04:46:30;19.95;;;8.18;;
59052;SDS011;44843;44.728;10.396;2023-03-13T04:48:55;17.17;;;8.35;;
59052;SDS011;44843;44.728;10.396;2023-03-13T04:51:21;14.20;;;7.63;;
59052;SDS011;44843;44.728;10.396;2023-03-13T04:53:46;13.73;;;8.32;;
59052;SDS011;44843;44.728;10.396;2023-03-13T04:56:11;15.57;;;8.52;;
59052;SDS011;44843;44.728;10.396;2023-03-13T04:58:46;13.43;;;8.98;;
59052;SDS011;44843;44.728;10.396;2023-03-13T05:01:11;19.30;;;9.65;;
59052;SDS011;44843;44.728;10.396;2023-03-13T05:03:36;13.30;;;8.40;;
59052;SDS011;44843;44.728;10.396;2023-03-13T05:06:02;15.75;;;8.38;;
59052;SDS011;44843;44.728;10.396;2023-03-13T05:08:27;13.90;;;7.88;;
59052;SDS011;44843;44.728;10.396;2023-03-13T05:10:53;13.70;;;8.05;;
59052;SDS011;44843;44.728;10.396;2023-03-13T05:13:18;13.70;;;8.90;;
59052;SDS011;44843;44.728;10.396;2023-03-13T05:15:43;17.50;;;9.38;;
59052;SDS011;44843;44.728;10.396;2023-03-13T05:18:09;19.63;;;8.70;;
59052;SDS011;44843;44.728;10.396;2023-03-13T05:20:34;13.88;;;8.45;;
59052;SDS011;44843;44.728;10.396;2023-03-13T05:22:59;19.17;;;8.60;;
59052;SDS011;44843;44.728;10.396;2023-03-13T05:25:25;15.30;;;8.38;;
59052;SDS011;44843;44.728;10.396;2023-03-13T05:27:50;15.32;;;8.73;;
59052;SDS011;44843;44.728;10.396;2023-03-13T05:30:15;15.98;;;7.93;;
59052;SDS011;44843;44.728;10.396;2023-03-13T05:32:41;13.00;;;8.85;;
59052;SDS011;44843;44.728;10.396;2023-03-13T05:35:06;14.73;;;8.38;;
59052;SDS011;44843;44.728;10.396;2023-03-13T05:37:32;16.65;;;8.80;;
59052;SDS011;44843;44.728;10.396;2023-03-13T05:39:57;18.60;;;8.52;;
59052;SDS011;44843;44.728;10.396;2023-03-13T05:42:23;18.35;;;8.55;;
59052;SDS011;44843;44.728;10.396;2023-03-13T05:44:49;14.45;;;9.00;;
59052;SDS011;44843;44.728;10.396;2023-03-13T05:47:14;14.23;;;7.45;;
59052;SDS011;44843;44.728;10.396;2023-03-13T05:49:41;17.48;;;8.82;;
59052;SDS011;44843;44.728;10.396;2023-03-13T05:52:06;17.55;;;9.07;;
59052;SDS011;44843;44.728;10.396;2023-03-13T05:54:32;16.90;;;9.43;;
59052;SDS011;44843;44.728;10.396;2023-03-13T05:56:57;15.10;;;9.07;;
59052;SDS011;44843;44.728;10.396;2023-03-13T05:59:23;15.65;;;8.95;;
59052;SDS011;44843;44.728;10.396;2023-03-13T06:01:48;23.38;;;9.18;;
59052;SDS011;44843;44.728;10.396;2023-03-13T06:04:13;14.43;;;9.05;;
59052;SDS011;44843;44.728;10.396;2023-03-13T06:06:39;14.00;;;8.52;;
59052;SDS011;44843;44.728;10.396;2023-03-13T06:09:04;16.00;;;9.48;;
59052;SDS011;44843;44.728;10.396;2023-03-13T06:11:30;15.60;;;8.82;;
59052;SDS011;44843;44.728;10.396;2023-03-13T06:13:55;26.27;;;8.60;;
59052;SDS011;44843;44.728;10.396;2023-03-13T06:16:20;16.65;;;8.70;;
59052;SDS011;44843;44.728;10.396;2023-03-13T06:18:46;16.60;;;8.88;;
59052;SDS011;44843;44.728;10.396;2023-03-13T06:21:11;15.55;;;8.27;;
59052;SDS011;44843;44.728;10.396;2023-03-13T06:23:37;21.13;;;9.38;;
59052;SDS011;44843;44.728;10.396;2023-03-13T06:26:02;19.20;;;10.57;;
59052;SDS011;44843;44.728;10.396;2023-03-13T06:28:28;19.05;;;9.35;;
59052;SDS011;44843;44.728;10.396;2023-03-13T06:30:53;19.98;;;9.40;;
59052;SDS011;44843;44.728;10.396;2023-03-13T06:33:19;18.05;;;9.40;;
59052;SDS011;44843;44.728;10.396;2023-03-13T06:35:45;18.50;;;9.35;;
59052;SDS011;44843;44.728;10.396;2023-03-13T06:38:10;14.18;;;9.55;;
59052;SDS011;44843;44.728;10.396;2023-03-13T06:40:36;24.80;;;9.77;;
59052;SDS011;44843;44.728;10.396;2023-03-13T06:43:01;16.35;;;9.20;;
59052;SDS011;44843;44.728;10.396;2023-03-13T06:45:27;19.50;;;9.82;;
59052;SDS011;44843;44.728;10.396;2023-03-13T06:47:52;14.52;;;9.23;;
59052;SDS011;44843;44.728;10.396;2023-03-13T06:50:18;16.50;;;8.93;;
59052;SDS011;44843;44.728;10.396;2023-03-13T06:52:44;15.07;;;9.75;;
59052;SDS011;44843;44.728;10.396;2023-03-13T06:55:11;14.85;;;8.98;;
59052;SDS011;44843;44.728;10.396;2023-03-13T06:57:36;13.02;;;8.95;;
59052;SDS011;44843;44.728;10.396;2023-03-13T07:00:02;16.48;;;9.10;;
59052;SDS011;44843;44.728;10.396;2023-03-13T07:02:30;16.25;;;9.25;;
59052;SDS011;44843;44.728;10.396;2023-03-13T07:04:56;19.50;;;8.82;;
59052;SDS011;44843;44.728;10.396;2023-03-13T07:07:21;14.70;;;9.70;;
59052;SDS011;44843;44.728;10.396;2023-03-13T07:09:46;16.38;;;9.60;;
59052;SDS011;44843;44.728;10.396;2023-03-13T07:12:12;19.15;;;9.27;;
59052;SDS011;44843;44.728;10.396;2023-03-13T07:14:37;25.95;;;10.63;;
59052;SDS011;44843;44.728;10.396;2023-03-13T07:17:02;17.27;;;9.07;;
59052;SDS011;44843;44.728;10.396;2023-03-13T07:19:28;20.23;;;9.18;;
59052;SDS011;44843;44.728;10.396;2023-03-13T07:21:53;21.63;;;9.80;;
59052;SDS011;44843;44.728;10.396;2023-03-13T07:24:19;21.17;;;9.95;;
59052;SDS011;44843;44.728;10.396;2023-03-13T07:26:45;18.27;;;9.55;;
59052;SDS011;44843;44.728;10.396;2023-03-13T07:29:10;22.55;;;11.63;;
59052;SDS011;44843;44.728;10.396;2023-03-13T07:31:35;21.83;;;11.20;;
59052;SDS011;44843;44.728;10.396;2023-03-13T07:34:01;16.83;;;10.52;;
59052;SDS011;44843;44.728;10.396;2023-03-13T07:36:26;22.10;;;10.93;;
59052;SDS011;44843;44.728;10.396;2023-03-13T07:38:52;17.67;;;10.20;;
59052;SDS011;44843;44.728;10.396;2023-03-13T07:41:17;17.10;;;10.38;;
59052;SDS011;44843;44.728;10.396;2023-03-13T07:43:44;17.15;;;10.35;;
59052;SDS011;44843;44.728;10.396;2023-03-13T07:46:11;21.65;;;12.70;;
59052;SDS011;44843;44.728;10.396;2023-03-13T07:48:39;20.23;;;10.73;;
59052;SDS011;44843;44.728;10.396;2023-03-13T07:51:11;18.23;;;10.73;;
59052;SDS011;44843;44.728;10.396;2023-03-13T07:53:42;19.00;;;11.05;;
59052;SDS011;44843;44.728;10.396;2023-03-13T07:56:12;16.70;;;11.23;;
59052;SDS011;44843;44.728;10.396;2023-03-13T07:58:39;19.10;;;10.73;;
59052;SDS011;44843;44.728;10.396;2023-03-13T08:01:09;14.88;;;9.93;;
59052;SDS011;44843;44.728;10.396;2023-03-13T08:03:39;22.08;;;11.38;;
59052;SDS011;44843;44.728;10.396;2023-03-13T08:06:06;21.33;;;11.23;;
59052;SDS011;44843;44.728;10.396;2023-03-13T08:08:33;18.35;;;11.15;;
59052;SDS011;44843;44.728;10.396;2023-03-13T08:11:00;25.15;;;12.65;;
59052;SDS011;44843;44.728;10.396;2023-03-13T08:13:33;21.30;;;11.68;;
59052;SDS011;44843;44.728;10.396;2023-03-13T08:18:32;17.80;;;10.85;;
59052;SDS011;44843;44.728;10.396;2023-03-13T08:23:58;26.13;;;11.20;;
59052;SDS011;44843;44.728;10.396;2023-03-13T08:26:28;18.00;;;10.63;;
59052;SDS011;44843;44.728;10.396;2023-03-13T08:28:55;27.83;;;14.05;;
59052;SDS011;44843;44.728;10.396;2023-03-13T08:31:23;18.02;;;10.95;;
59052;SDS011;44843;44.728;10.396;2023-03-13T08:33:50;17.08;;;10.15;;
59052;SDS011;44843;44.728;10.396;2023-03-13T08:36:17;22.05;;;12.73;;
59052;SDS011;44843;44.728;10.396;2023-03-13T08:38:48;16.58;;;11.25;;
59052;SDS011;44843;44.728;10.396;2023-03-13T08:41:18;21.70;;;9.70;;
59052;SDS011;44843;44.728;10.396;2023-03-13T08:43:46;17.25;;;9.18;;
59052;SDS011;44843;44.728;10.396;2023-03-13T08:46:12;21.60;;;10.43;;
59052;SDS011;44843;44.728;10.396;2023-03-13T08:48:39;13.40;;;9.40;;
59052;SDS011;44843;44.728;10.396;2023-03-13T08:51:05;13.68;;;8.30;;
59052;SDS011;44843;44.728;10.396;2023-03-13T08:53:32;20.77;;;9.90;;
59052;SDS011;44843;44.728;10.396;2023-03-13T08:55:58;20.17;;;9.07;;
59052;SDS011;44843;44.728;10.396;2023-03-13T08:58:24;15.10;;;9.60;;
59052;SDS011;44843;44.728;10.396;2023-03-13T09:00:49;18.33;;;8.57;;
59052;SDS011;44843;44.728;10.396;2023-03-13T09:03:14;15.10;;;8.52;;
59052;SDS011;44843;44.728;10.396;2023-03-13T09:05:41;20.05;;;9.30;;
59052;SDS011;44843;44.728;10.396;2023-03-13T09:08:07;15.05;;;8.07;;
59052;SDS011;44843;44.728;10.396;2023-03-13T09:10:32;14.10;;;7.72;;
59052;SDS011;44843;44.728;10.396;2023-03-13T09:12:58;14.75;;;7.57;;
59052;SDS011;44843;44.728;10.396;2023-03-13T09:15:23;15.32;;;7.57;;
59052;SDS011;44843;44.728;10.396;2023-03-13T09:17:48;13.18;;;8.20;;
59052;SDS011;44843;44.728;10.396;2023-03-13T09:20:14;14.80;;;8.77;;
59052;SDS011;44843;44.728;10.396;2023-03-13T09:22:39;26.25;;;12.40;;
59052;SDS011;44843;44.728;10.396;2023-03-13T09:25:05;18.42;;;9.98;;
59052;SDS011;44843;44.728;10.396;2023-03-13T09:27:30;16.75;;;9.15;;
59052;SDS011;44843;44.728;10.396;2023-03-13T09:29:56;14.10;;;7.75;;
59052;SDS011;44843;44.728;10.396;2023-03-13T09:32:21;12.63;;;7.18;;
59052;SDS011;44843;44.728;10.396;2023-03-13T09:34:47;15.80;;;7.60;;
59052;SDS011;44843;44.728;10.396;2023-03-13T09:37:12;18.73;;;7.85;;
59052;SDS011;44843;44.728;10.396;2023-03-13T09:39:38;12.27;;;7.22;;
59052;SDS011;44843;44.728;10.396;2023-03-13T09:44:39;13.48;;;7.32;;
59052;SDS011;44843;44.728;10.396;2023-03-13T09:47:19;9.55;;;7.07;;
59052;SDS011;44843;44.728;10.396;2023-03-13T09:52:23;18.70;;;7.47;;
59052;SDS011;44843;44.728;10.396;2023-03-13T09:57:23;11.77;;;6.65;;
59052;SDS011;44843;44.728;10.396;2023-03-13T10:00:18;11.15;;;6.38;;
59052;SDS011;44843;44.728;10.396;2023-03-13T10:03:11;12.13;;;6.63;;
59052;SDS011;44843;44.728;10.396;2023-03-13T10:05:43;8.23;;;6.75;;
59052;SDS011;44843;44.728;10.396;2023-03-13T10:08:21;12.52;;;6.55;;
59052;SDS011;44843;44.728;10.396;2023-03-13T10:10:53;12.98;;;6.45;;
59052;SDS011;44843;44.728;10.396;2023-03-13T10:13:38;14.18;;;6.43;;
59052;SDS011;44843;44.728;10.396;2023-03-13T10:16:32;10.32;;;5.90;;
59052;SDS011;44843;44.728;10.396;2023-03-13T10:19:08;9.60;;;6.15;;
59052;SDS011;44843;44.728;10.396;2023-03-13T10:21:38;9.55;;;6.00;;
59052;SDS011;44843;44.728;10.396;2023-03-13T10:24:48;12.85;;;6.10;;
59052;SDS011;44843;44.728;10.396;2023-03-13T10:27:00;9.90;;;6.90;;
59052;SDS011;44843;44.728;10.396;2023-03-13T10:29:27;9.20;;;6.85;;
59052;SDS011;44843;44.728;10.396;2023-03-13T10:31:58;11.60;;;6.40;;
59052;SDS011;44843;44.728;10.396;2023-03-13T10:34:27;12.85;;;7.32;;
59052;SDS011;44843;44.728;10.396;2023-03-13T10:37:14;11.65;;;7.43;;
59052;SDS011;44843;44.728;10.396;2023-03-13T10:39:40;14.73;;;7.78;;
59052;SDS011;44843;44.728;10.396;2023-03-13T10:42:07;11.25;;;7.20;;
59052;SDS011;44843;44.728;10.396;2023-03-13T10:44:35;11.20;;;7.32;;
59052;SDS011;44843;44.728;10.396;2023-03-13T10:47:01;10.90;;;7.60;;
59052;SDS011;44843;44.728;10.396;2023-03-13T10:49:28;13.95;;;7.63;;
59052;SDS011;44843;44.728;10.396;2023-03-13T10:51:59;14.23;;;7.93;;
59052;SDS011;44843;44.728;10.396;2023-03-13T10:54:27;9.38;;;6.93;;
59052;SDS011;44843;44.728;10.396;2023-03-13T10:59:46;13.50;;;8.05;;
59052;SDS011;44843;44.728;10.396;2023-03-13T11:02:19;14.18;;;7.95;;
59052;SDS011;44843;44.728;10.396;2023-03-13T11:04:48;11.70;;;8.05;;
59052;SDS011;44843;44.728;10.396;2023-03-13T11:07:39;13.05;;;7.65;;
59052;SDS011;44843;44.728;10.396;2023-03-13T11:12:50;11.82;;;8.25;;
59052;SDS011;44843;44.728;10.396;2023-03-13T11:15:22;12.48;;;7.97;;
59052;SDS011;44843;44.728;10.396;2023-03-13T11:20:42;11.98;;;7.80;;
59052;SDS011;44843;44.728;10.396;2023-03-13T11:31:06;14.00;;;8.32;;
59052;SDS011;44843;44.728;10.396;2023-03-13T11:33:55;13.65;;;8.25;;
59052;SDS011;44843;44.728;10.396;2023-03-13T11:36:37;13.38;;;7.57;;
59052;SDS011;44843;44.728;10.396;2023-03-13T11:50:22;14.80;;;8.23;;
59052;SDS011;44843;44.728;10.396;2023-03-13T11:53:03;16.58;;;8.02;;
59052;SDS011;44843;44.728;10.396;2023-03-13T11:55:56;15.35;;;9.50;;
59052;SDS011;44843;44.728;10.396;2023-03-13T11:58:45;17.33;;;10.15;;
59052;SDS011;44843;44.728;10.396;2023-03-13T12:01:25;15.57;;;9.18;;
59052;SDS011;44843;44.728;10.396;2023-03-13T12:06:34;13.05;;;8.65;;
59052;SDS011;44843;44.728;10.396;2023-03-13T12:14:25;17.08;;;10.85;;
59052;SDS011;44843;44.728;10.396;2023-03-13T12:17:00;14.50;;;9.38;;
59052;SDS011;44843;44.728;10.396;2023-03-13T12:19:37;16.48;;;9.98;;
59052;SDS011;44843;44.728;10.396;2023-03-13T12:22:16;18.73;;;11.93;;
59052;SDS011;44843;44.728;10.396;2023-03-13T12:25:00;16.85;;;11.10;;
59052;SDS011;44843;44.728;10.396;2023-03-13T12:27:30;18.08;;;11.30;;
59052;SDS011;44843;44.728;10.396;2023-03-13T12:30:23;18.15;;;10.88;;
59052;SDS011;44843;44.728;10.396;2023-03-13T12:35:50;20.08;;;10.82;;
59052;SDS011;44843;44.728;10.396;2023-03-13T12:38:27;17.50;;;10.07;;
59052;SDS011;44843;44.728;10.396;2023-03-13T12:41:11;17.55;;;9.98;;
59052;SDS011;44843;44.728;10.396;2023-03-13T12:43:43;18.80;;;10.35;;
59052;SDS011;44843;44.728;10.396;2023-03-13T13:00:24;18.23;;;10.25;;
59052;SDS011;44843;44.728;10.396;2023-03-13T13:06:02;15.98;;;9.63;;
59052;SDS011;44843;44.728;10.396;2023-03-13T13:08:30;20.00;;;9.05;;
59052;SDS011;44843;44.728;10.396;2023-03-13T13:14:02;15.70;;;9.63;;
59052;SDS011;44843;44.728;10.396;2023-03-13T13:24:56;15.00;;;8.93;;
59052;SDS011;44843;44.728;10.396;2023-03-13T13:27:27;15.57;;;8.82;;
59052;SDS011;44843;44.728;10.396;2023-03-13T13:29:55;15.10;;;9.77;;
59052;SDS011;44843;44.728;10.396;2023-03-13T13:32:39;14.02;;;8.68;;
59052;SDS011;44843;44.728;10.396;2023-03-13T13:37:40;11.32;;;8.38;;
59052;SDS011;44843;44.728;10.396;2023-03-13T13:58:56;13.18;;;8.13;;
59052;SDS011;44843;44.728;10.396;2023-03-13T14:01:24;14.75;;;9.43;;
59052;SDS011;44843;44.728;10.396;2023-03-13T14:03:50;15.55;;;9.30;;
59052;SDS011;44843;44.728;10.396;2023-03-13T14:06:20;18.40;;;8.88;;
59052;SDS011;44843;44.728;10.396;2023-03-13T14:08:49;13.80;;;8.63;;
59052;SDS011;44843;44.728;10.396;2023-03-13T14:11:36;11.80;;;8.63;;
59052;SDS011;44843;44.728;10.396;2023-03-13T14:14:16;13.57;;;8.75;;
59052;SDS011;44843;44.728;10.396;2023-03-13T14:16:46;14.98;;;8.50;;
59052;SDS011;44843;44.728;10.396;2023-03-13T14:22:01;15.55;;;8.85;;
59052;SDS011;44843;44.728;10.396;2023-03-13T14:24:29;15.05;;;9.27;;
59052;SDS011;44843;44.728;10.396;2023-03-13T14:26:54;12.27;;;8.27;;
59052;SDS011;44843;44.728;10.396;2023-03-13T14:29:20;15.25;;;9.25;;
59052;SDS011;44843;44.728;10.396;2023-03-13T14:31:53;15.80;;;8.65;;
59052;SDS011;44843;44.728;10.396;2023-03-13T14:34:21;14.75;;;8.73;;
59052;SDS011;44843;44.728;10.396;2023-03-13T14:36:54;14.68;;;8.70;;
59052;SDS011;44843;44.728;10.396;2023-03-13T14:39:41;13.85;;;9.35;;
59052;SDS011;44843;44.728;10.396;2023-03-13T14:44:36;16.75;;;9.07;;
59052;SDS011;44843;44.728;10.396;2023-03-13T14:47:08;16.42;;;9.60;;
59052;SDS011;44843;44.728;10.396;2023-03-13T14:49:55;13.65;;;9.15;;
59052;SDS011;44843;44.728;10.396;2023-03-13T14:52:23;14.65;;;9.57;;
59052;SDS011;44843;44.728;10.396;2023-03-13T14:54:54;12.57;;;9.18;;
59052;SDS011;44843;44.728;10.396;2023-03-13T14:57:25;15.60;;;9.48;;
59052;SDS011;44843;44.728;10.396;2023-03-13T14:59:51;13.45;;;9.07;;
59052;SDS011;44843;44.728;10.396;2023-03-13T15:07:16;13.25;;;8.45;;
59052;SDS011;44843;44.728;10.396;2023-03-13T15:09:42;13.68;;;8.70;;
59052;SDS011;44843;44.728;10.396;2023-03-13T15:12:13;14.98;;;9.60;;
59052;SDS011;44843;44.728;10.396;2023-03-13T15:14:41;12.15;;;9.13;;
59052;SDS011;44843;44.728;10.396;2023-03-13T15:17:11;13.15;;;8.88;;
59052;SDS011;44843;44.728;10.396;2023-03-13T15:19:52;14.75;;;9.40;;
59052;SDS011;44843;44.728;10.396;2023-03-13T15:22:23;14.88;;;8.85;;
59052;SDS011;44843;44.728;10.396;2023-03-13T15:24:51;12.68;;;8.45;;
59052;SDS011;44843;44.728;10.396;2023-03-13T15:27:17;14.70;;;9.50;;
59052;SDS011;44843;44.728;10.396;2023-03-13T15:29:44;16.65;;;10.25;;
59052;SDS011;44843;44.728;10.396;2023-03-13T15:32:55;20.95;;;10.50;;
59052;SDS011;44843;44.728;10.396;2023-03-13T15:34:59;15.32;;;9.23;;
59052;SDS011;44843;44.728;10.396;2023-03-13T15:37:29;13.95;;;9.93;;
59052;SDS011;44843;44.728;10.396;2023-03-13T15:39:55;20.58;;;12.32;;
59052;SDS011;44843;44.728;10.396;2023-03-13T15:42:22;17.15;;;10.13;;
59052;SDS011;44843;44.728;10.396;2023-03-13T15:44:47;16.45;;;9.70;;
59052;SDS011;44843;44.728;10.396;2023-03-13T15:47:19;15.38;;;9.75;;
59052;SDS011;44843;44.728;10.396;2023-03-13T15:49:46;14.45;;;9.90;;
59052;SDS011;44843;44.728;10.396;2023-03-13T15:52:16;18.42;;;9.95;;
59052;SDS011;44843;44.728;10.396;2023-03-13T15:54:47;15.95;;;10.35;;
59052;SDS011;44843;44.728;10.396;2023-03-13T15:57:13;14.05;;;9.45;;
59052;SDS011;44843;44.728;10.396;2023-03-13T15:59:40;20.63;;;11.88;;
59052;SDS011;44843;44.728;10.396;2023-03-13T16:02:19;15.60;;;10.65;;
59052;SDS011;44843;44.728;10.396;2023-03-13T16:04:47;14.00;;;9.48;;
59052;SDS011;44843;44.728;10.396;2023-03-13T16:07:13;13.20;;;9.43;;
59052;SDS011;44843;44.728;10.396;2023-03-13T16:09:41;14.35;;;9.93;;
59052;SDS011;44843;44.728;10.396;2023-03-13T16:12:07;14.60;;;9.15;;
59052;SDS011;44843;44.728;10.396;2023-03-13T16:14:33;16.90;;;9.43;;
59052;SDS011;44843;44.728;10.396;2023-03-13T16:16:59;15.23;;;9.93;;
59052;SDS011;44843;44.728;10.396;2023-03-13T16:19:24;17.67;;;10.32;;
59052;SDS011;44843;44.728;10.396;2023-03-13T16:21:50;19.27;;;9.93;;
59052;SDS011;44843;44.728;10.396;2023-03-13T16:24:16;23.38;;;11.00;;
59052;SDS011;44843;44.728;10.396;2023-03-13T16:26:43;21.83;;;10.88;;
59052;SDS011;44843;44.728;10.396;2023-03-13T16:29:10;17.35;;;10.00;;